Time;durP1;ratioP1;P1;durP2;ratioP2;P2;SDS_P1;SDS_P2;PMS_P1;PMS_P2;Temp;Humidity;BMP_temperature;BMP_pressure;BME280_temperature;BME280_humidity;BME280_pressure;Samples;Min_cycle;Max_cycle;Signal;HPM_P1;HPM_P2
2023/06/19 00:00:51;;;;;;;4.90;4.20;;;19.60;99.90;;;19.91;64.84;95060.94;5032007;28;20490;-59
2023/06/19 00:03:18;;;;;;;3.90;3.60;;;19.60;99.90;;;19.90;65.14;95064.66;5027780;28;20966;-58
2023/06/19 00:05:45;;;;;;;4.60;4.20;;;19.60;99.90;;;19.88;64.66;95060.31;5030300;28;20475;-59
2023/06/19 00:08:14;;;;;;;3.63;3.43;;;19.60;99.90;;;19.87;64.42;95061.31;5032434;28;20460;-57
2023/06/19 00:10:42;;;;;;;12.27;4.43;;;19.50;99.90;;;19.83;64.91;95059.22;5035078;28;20909;-59
2023/06/19 00:13:09;;;;;;;4.17;3.87;;;19.50;99.90;;;19.81;64.58;95055.94;5055768;23;20504;-59
2023/06/19 00:15:37;;;;;;;3.50;3.30;;;19.50;99.90;;;19.79;64.69;95055.31;5019083;28;20466;-59
2023/06/19 00:18:06;;;;;;;4.17;3.87;;;19.50;99.90;;;19.78;64.89;95050.97;5017855;28;20449;-60
2023/06/19 00:20:36;;;;;;;4.10;3.70;;;19.40;99.90;;;19.77;64.38;95047.50;5013132;28;20457;-55
2023/06/19 00:23:03;;;;;;;4.27;3.97;;;19.40;99.90;;;19.77;64.68;95049.31;5014969;28;20980;-56
2023/06/19 00:25:30;;;;;;;15.20;3.93;;;19.40;99.90;;;19.76;64.76;95053.00;5014560;28;20501;-59
2023/06/19 00:27:58;;;;;;;4.10;3.90;;;19.40;99.90;;;19.74;64.49;95039.03;5014622;28;20455;-55
2023/06/19 00:30:26;;;;;;;5.60;3.60;;;19.40;99.90;;;19.74;64.36;95050.53;5016268;28;20473;-56
2023/06/19 00:32:53;;;;;;;4.97;4.57;;;19.40;99.90;;;19.74;65.08;95041.69;5019948;28;20495;-59
2023/06/19 00:35:22;;;;;;;4.60;4.10;;;19.40;99.90;;;19.72;64.54;95039.22;5014787;28;20482;-60
2023/06/19 00:37:50;;;;;;;3.93;3.57;;;19.40;99.90;;;19.73;64.76;95040.03;5021993;28;20523;-59
2023/06/19 00:40:28;;;;;;;7.20;5.47;;;19.40;99.90;;;19.71;64.99;95041.03;5014463;28;20474;-61
2023/06/19 00:42:55;;;;;;;5.20;3.50;;;19.40;99.90;;;19.71;64.85;95048.25;5015577;28;20445;-56
2023/06/19 00:45:23;;;;;;;6.73;4.53;;;19.40;99.90;;;19.69;64.44;95044.94;5017091;28;20497;-59
2023/06/19 00:47:51;;;;;;;6.50;4.03;;;19.30;99.90;;;19.67;65.02;95034.47;5019327;28;20458;-57
2023/06/19 00:50:18;;;;;;;10.93;4.03;;;19.30;99.90;;;19.66;64.74;95035.47;5014947;28;20912;-55
2023/06/19 00:52:47;;;;;;;4.80;3.90;;;19.40;99.90;;;19.64;64.35;95029.50;5019715;28;20521;-59
2023/06/19 00:55:15;;;;;;;5.10;3.93;;;19.30;99.90;;;19.63;65.11;95033.19;5017964;28;20950;-56
2023/06/19 00:57:43;;;;;;;4.87;4.47;;;19.30;99.90;;;19.63;64.77;95019.03;5017395;28;20460;-56
2023/06/19 01:00:14;;;;;;;4.53;4.07;;;19.30;99.90;;;19.62;64.93;95014.69;5014225;28;20472;-55
2023/06/19 01:02:41;;;;;;;4.27;3.97;;;19.30;99.90;;;19.59;64.82;95007.09;5018435;28;20458;-58
2023/06/19 01:05:09;;;;;;;7.67;4.43;;;19.30;99.90;;;19.56;64.60;95016.28;5017796;28;20543;-60
2023/06/19 01:07:44;;;;;;;6.90;4.13;;;19.30;99.90;;;19.55;64.40;95014.66;5021262;28;20463;-59
2023/06/19 01:10:14;;;;;;;7.87;3.93;;;19.20;99.90;;;19.52;64.88;95007.03;5018836;28;20529;-59
2023/06/19 01:12:50;;;;;;;5.77;4.50;;;19.20;99.90;;;19.49;64.92;95000.22;5013562;28;20488;-57
2023/06/19 01:15:19;;;;;;;3.90;3.60;;;19.20;99.90;;;19.47;64.33;95009.44;5018938;28;20476;-57
2023/06/19 01:17:47;;;;;;;4.30;4.00;;;19.10;99.90;;;19.45;64.29;95008.81;5016549;28;21040;-57
2023/06/19 01:20:14;;;;;;;4.40;4.00;;;19.20;99.90;;;19.42;64.69;95014.53;5018163;28;20478;-60
2023/06/19 01:22:43;;;;;;;4.27;3.83;;;19.10;99.90;;;19.40;64.51;95008.56;5017292;28;20547;-60
2023/06/19 01:25:13;;;;;;;4.00;3.80;;;19.10;99.90;;;19.36;64.72;95010.75;5016061;28;20500;-55
2023/06/19 01:27:41;;;;;;;5.13;4.50;;;19.00;99.90;;;19.34;64.33;95012.81;5015814;28;20511;-56
2023/06/19 01:30:10;;;;;;;4.77;4.37;;;19.10;99.90;;;19.32;64.90;95009.50;5013592;28;21145;-54
2023/06/19 01:32:44;;;;;;;7.27;4.17;;;19.00;99.90;;;19.29;64.67;95010.72;5016148;28;20468;-59
2023/06/19 01:35:11;;;;;;;4.80;3.30;;;19.00;99.90;;;19.27;64.51;95020.75;5013460;28;20505;-60
2023/06/19 01:37:39;;;;;;;5.10;4.60;;;19.00;99.90;;;19.24;65.04;95007.81;5018194;28;20460;-60
2023/06/19 01:40:10;;;;;;;4.33;3.93;;;18.90;99.90;;;19.23;64.95;95027.47;5013144;28;20477;-60
2023/06/19 01:42:38;;;;;;;6.90;3.60;;;18.90;99.90;;;19.22;64.83;95019.66;5014002;28;20461;-54
2023/06/19 01:45:07;;;;;;;5.60;5.10;;;18.90;99.90;;;19.20;65.34;95027.03;5009040;28;20532;-56
2023/06/19 01:47:35;;;;;;;15.33;5.53;;;18.90;99.90;;;19.17;65.26;95028.22;5013139;28;20519;-55
2023/06/19 01:50:02;;;;;;;4.23;3.90;;;18.90;99.90;;;19.14;65.12;95032.09;5015572;28;20469;-59
2023/06/19 01:52:29;;;;;;;4.20;3.90;;;18.80;99.90;;;19.10;65.67;95028.16;5013697;28;20449;-54
2023/06/19 01:54:56;;;;;;;4.90;3.97;;;18.80;99.90;;;19.08;66.18;95034.69;5009633;28;20477;-57
2023/06/19 01:57:25;;;;;;;6.67;4.50;;;18.80;99.90;;;19.05;66.06;95027.88;5013026;28;20456;-60
2023/06/19 01:59:53;;;;;;;4.47;4.07;;;18.80;99.90;;;19.01;65.65;95034.63;5014617;28;20484;-60
2023/06/19 02:02:20;;;;;;;4.13;3.83;;;18.70;99.90;;;18.98;66.30;95040.34;5013170;28;20791;-59
2023/06/19 02:04:47;;;;;;;7.80;4.33;;;18.70;99.90;;;18.94;65.89;95031.88;5009962;28;20501;-55
2023/06/19 02:07:14;;;;;;;4.53;4.13;;;18.70;99.90;;;18.91;66.44;95039.41;5013413;28;20562;-60
2023/06/19 02:09:42;;;;;;;5.30;3.87;;;18.60;99.90;;;18.88;66.87;95040.63;5010679;28;20485;-60
2023/06/19 02:12:10;;;;;;;4.20;3.87;;;18.60;99.90;;;18.84;66.73;95038.47;5009905;28;20557;-57
2023/06/19 02:14:39;;;;;;;5.03;3.77;;;18.60;99.90;;;18.81;67.13;95037.03;5011096;28;20468;-60
2023/06/19 02:17:06;;;;;;;4.60;3.83;;;18.50;99.90;;;18.78;67.01;95043.56;5016589;28;20459;-57
2023/06/19 02:19:33;;;;;;;3.60;3.40;;;18.50;99.90;;;18.75;66.30;95051.09;5011543;28;21013;-60
2023/06/19 02:22:01;;;;;;;4.90;4.40;;;18.50;99.90;;;18.72;66.44;95041.63;5013754;28;20516;-56
2023/06/19 02:24:28;;;;;;;7.90;4.40;;;18.40;99.90;;;18.70;67.16;95045.47;5010838;28;20469;-56
2023/06/19 02:26:55;;;;;;;5.90;4.03;;;18.40;99.90;;;18.68;66.90;95039.53;5016223;28;20546;-60
2023/06/19 02:29:22;;;;;;;4.17;3.87;;;18.40;99.90;;;18.65;67.65;95040.72;5012167;28;20491;-60
2023/06/19 02:31:51;;;;;;;4.83;4.00;;;18.40;99.90;;;18.62;66.85;95044.59;5012819;28;20536;-60
2023/06/19 02:34:18;;;;;;;8.80;4.83;;;18.30;99.90;;;18.59;66.87;95047.63;5013418;28;20480;-55
2023/06/19 02:36:47;;;;;;;5.97;4.37;;;18.30;99.90;;;18.56;66.89;95052.47;5014420;28;20503;-55
2023/06/19 02:39:14;;;;;;;6.47;4.73;;;18.30;99.90;;;18.52;67.30;95054.69;5016376;28;20469;-56
2023/06/19 02:41:45;;;;;;;4.30;3.97;;;18.20;99.90;;;18.52;67.10;95056.53;5012565;28;20455;-56
2023/06/19 02:44:12;;;;;;;5.20;4.70;;;18.20;99.90;;;18.49;67.19;95059.56;5016128;28;20468;-60
2023/06/19 02:46:39;;;;;;;5.57;4.43;;;18.20;99.90;;;18.45;67.34;95061.75;5013828;28;20562;-59
2023/06/19 02:49:08;;;;;;;4.50;4.20;;;18.10;99.90;;;18.43;67.36;95053.13;5013276;28;20479;-60
2023/06/19 02:51:35;;;;;;;5.60;5.00;;;18.20;99.90;;;18.41;67.17;95058.66;5014426;28;20469;-57
2023/06/19 02:54:03;;;;;;;6.50;4.47;;;18.10;99.90;;;18.38;68.05;95071.50;5015293;28;20477;-59
2023/06/19 02:56:30;;;;;;;7.83;4.93;;;18.10;99.90;;;18.35;67.55;95070.03;5010119;28;20870;-60
2023/06/19 02:58:57;;;;;;;15.53;7.00;;;18.10;99.90;;;18.32;67.33;95066.91;5014150;28;20477;-60
2023/06/19 03:01:25;;;;;;;6.50;5.13;;;18.10;99.90;;;18.30;67.94;95066.28;5009332;28;20449;-60
2023/06/19 03:03:52;;;;;;;11.83;7.07;;;18.00;99.90;;;18.25;67.96;95062.31;5016093;28;20456;-55
2023/06/19 03:06:20;;;;;;;6.47;5.83;;;18.00;99.90;;;18.23;67.83;95071.50;5013830;28;20504;-55
2023/06/19 03:08:48;;;;;;;7.80;6.33;;;18.00;99.90;;;18.19;68.36;95062.22;5014859;28;20506;-60
2023/06/19 03:11:15;;;;;;;6.90;6.10;;;17.90;99.90;;;18.17;68.73;95069.56;5011343;28;20460;-60
2023/06/19 03:13:47;;;;;;;13.03;5.70;;;17.90;99.90;;;18.14;68.39;95070.75;5013347;28;20486;-59
2023/06/19 03:16:15;;;;;;;7.57;5.73;;;17.90;99.90;;;18.12;68.47;95063.97;5012240;28;20449;-56
2023/06/19 03:18:44;;;;;;;8.83;5.23;;;17.90;99.90;;;18.09;69.44;95067.78;5012241;28;20667;-56
2023/06/19 03:21:11;;;;;;;9.50;5.07;;;17.80;99.90;;;18.07;69.12;95065.31;5014632;28;20541;-55
2023/06/19 03:23:40;;;;;;;5.93;5.33;;;17.80;99.90;;;18.06;68.96;95057.50;5013854;28;20442;-55
2023/06/19 03:26:08;;;;;;;8.10;5.07;;;17.80;99.90;;;18.05;69.36;95063.88;5015057;28;20546;-59
2023/06/19 03:28:35;;;;;;;7.03;5.40;;;17.80;99.90;;;18.05;68.85;95055.88;5010232;28;20470;-60
2023/06/19 03:31:02;;;;;;;6.23;5.60;;;17.80;99.90;;;18.04;68.35;95064.88;5014493;28;21117;-56
2023/06/19 03:33:29;;;;;;;49.97;28.00;;;17.80;99.90;;;18.05;69.10;95061.22;5012078;28;20461;-61
2023/06/19 03:35:57;;;;;;;13.40;7.37;;;17.80;99.90;;;18.05;68.68;95063.88;5010972;28;20485;-57
2023/06/19 03:38:24;;;;;;;7.17;5.53;;;17.80;99.90;;;18.05;68.53;95062.03;5013125;28;20954;-57
2023/06/19 03:40:53;;;;;;;10.43;5.30;;;17.80;99.90;;;18.07;68.66;95064.50;5013507;28;20478;-59
2023/06/19 03:43:20;;;;;;;13.87;5.83;;;17.80;99.90;;;18.08;68.99;95068.81;5005909;28;20998;-59
2023/06/19 03:45:48;;;;;;;9.50;5.20;;;17.80;99.90;;;18.07;68.72;95065.31;5012513;28;20499;-55
2023/06/19 03:48:17;;;;;;;11.20;4.90;;;17.80;99.90;;;18.09;68.38;95065.13;5009949;28;20449;-60
2023/06/19 03:50:44;;;;;;;5.17;4.67;;;17.80;99.90;;;18.11;67.95;95065.81;5018603;28;20464;-56
2023/06/19 03:53:11;;;;;;;8.00;5.20;;;17.80;99.90;;;18.13;68.10;95062.97;5012499;28;20553;-59
2023/06/19 03:55:39;;;;;;;5.80;4.80;;;17.80;99.90;;;18.14;68.05;95068.09;5013901;28;21002;-54
2023/06/19 03:58:07;;;;;;;8.47;5.17;;;17.90;99.90;;;18.16;67.26;95065.25;5009081;28;20454;-55
2023/06/19 04:00:35;;;;;;;9.00;4.27;;;17.90;99.90;;;18.17;67.94;95069.56;5013914;28;20469;-55
2023/06/19 04:03:02;;;;;;;6.10;4.63;;;17.90;99.90;;;18.19;67.21;95064.91;5008010;28;20477;-60
2023/06/19 04:05:29;;;;;;;4.90;4.50;;;17.90;99.90;;;18.23;67.39;95061.69;5012726;28;20466;-60
2023/06/19 04:07:56;;;;;;;7.03;5.60;;;17.90;99.90;;;18.25;66.92;95059.66;5014990;28;21010;-61
2023/06/19 04:10:24;;;;;;;9.40;4.80;;;17.90;99.90;;;18.29;66.91;95068.09;5015109;28;20480;-57
2023/06/19 04:12:51;;;;;;;5.50;4.90;;;18.00;99.90;;;18.33;66.81;95060.59;5013359;28;20540;-58
2023/06/19 04:15:19;;;;;;;8.10;4.83;;;18.00;99.90;;;18.37;66.63;95067.19;5013254;28;20515;-57
2023/06/19 04:17:47;;;;;;;7.13;4.87;;;18.00;99.90;;;18.42;67.05;95059.50;5015809;28;20465;-57
2023/06/19 04:20:14;;;;;;;4.63;4.23;;;18.10;99.90;;;18.48;66.97;95061.38;5011452;28;20568;-56
2023/06/19 04:22:41;;;;;;;12.53;4.10;;;18.10;99.90;;;18.53;66.40;95055.50;5013945;28;20469;-56
2023/06/19 04:25:10;;;;;;;5.03;4.17;;;18.20;99.90;;;18.58;66.12;95061.94;5013077;28;20990;-57
2023/06/19 04:27:37;;;;;;;6.87;4.83;;;18.30;99.90;;;18.62;66.76;95057.91;5016328;28;20558;-62
2023/06/19 04:30:06;;;;;;;8.73;4.37;;;18.30;99.90;;;18.69;66.79;95057.19;5016298;28;20489;-56
2023/06/19 04:32:35;;;;;;;7.77;4.60;;;18.40;99.90;;;18.71;65.66;95055.94;5013280;28;20568;-59
2023/06/19 04:35:03;;;;;;;5.07;4.50;;;18.40;99.90;;;18.74;65.65;95055.59;5017946;28;20485;-56
2023/06/19 04:37:30;;;;;;;5.57;5.07;;;18.40;99.90;;;18.78;65.75;95053.41;5017518;28;20553;-56
2023/06/19 04:39:57;;;;;;;5.53;4.80;;;18.50;99.90;;;18.81;65.97;95047.69;5015628;28;20476;-57
2023/06/19 04:42:26;;;;;;;6.33;4.50;;;18.50;99.90;;;18.85;66.04;95058.81;5012739;28;20472;-60
2023/06/19 04:44:55;;;;;;;5.33;4.03;;;18.50;99.90;;;18.90;65.70;95054.59;5015297;28;20484;-56
2023/06/19 04:47:24;;;;;;;8.87;5.10;;;18.60;99.90;;;18.94;65.28;95055.03;5011175;28;20501;-56
2023/06/19 04:49:53;;;;;;;4.97;4.47;;;18.60;99.90;;;18.98;65.69;95056.34;5009764;28;20567;-55
2023/06/19 04:52:20;;;;;;;6.40;4.73;;;18.60;99.90;;;19.01;65.37;95055.97;5016722;28;20460;-56
2023/06/19 04:54:48;;;;;;;4.60;4.20;;;18.70;99.90;;;19.05;65.54;95061.72;5018180;28;20472;-55
2023/06/19 04:57:16;;;;;;;4.77;4.37;;;18.70;99.90;;;19.10;65.23;95056.66;5009549;28;20519;-61
2023/06/19 04:59:44;;;;;;;5.90;4.17;;;18.80;99.90;;;19.13;65.51;95058.94;5017552;28;20559;-61
2023/06/19 05:02:11;;;;;;;4.33;3.90;;;18.80;99.90;;;19.18;65.01;95053.88;5010929;28;20536;-56
2023/06/19 05:04:42;;;;;;;7.57;5.53;;;18.90;99.90;;;19.23;64.93;95054.13;5016461;28;20834;-61
2023/06/19 05:07:12;;;;;;;10.33;4.27;;;18.90;99.90;;;19.28;65.33;95048.25;5015236;28;20531;-57
2023/06/19 05:09:39;;;;;;;4.80;4.27;;;18.90;99.90;;;19.34;65.43;95060.81;5019274;28;20483;-56
2023/06/19 05:12:08;;;;;;;4.77;3.90;;;19.00;99.90;;;19.39;64.47;95062.91;5009970;28;20456;-56
2023/06/19 05:14:35;;;;;;;4.90;4.50;;;19.00;99.90;;;19.45;64.70;95062.16;5010579;28;20982;-57
2023/06/19 05:17:02;;;;;;;5.13;4.63;;;19.10;99.90;;;19.51;64.18;95062.22;5014604;28;20547;-60
2023/06/19 05:19:30;;;;;;;6.73;4.20;;;19.20;99.90;;;19.62;64.13;95068.88;5016221;28;20480;-57
2023/06/19 05:21:57;;;;;;;6.60;4.53;;;19.20;99.90;;;19.76;64.58;95069.00;5014121;28;20453;-55
2023/06/19 05:24:25;;;;;;;6.60;5.90;;;19.30;99.90;;;19.90;64.55;95064.66;5014257;28;20594;-57
2023/06/19 05:26:53;;;;;;;5.93;4.60;;;19.50;99.90;;;20.04;64.30;95069.06;5016356;28;20497;-62
2023/06/19 05:29:20;;;;;;;4.90;4.40;;;19.60;99.90;;;20.16;63.91;95064.84;5014906;28;20939;-56
2023/06/19 05:31:47;;;;;;;5.00;4.60;;;19.70;99.90;;;20.34;63.30;95072.38;5013530;28;20851;-61
2023/06/19 05:34:14;;;;;;;7.93;4.20;;;19.90;99.90;;;20.48;63.08;95083.13;5013375;28;21058;-62
2023/06/19 05:36:47;;;;;;;7.57;4.60;;;20.00;99.90;;;20.65;62.82;95081.00;5014147;28;20480;-55
2023/06/19 05:39:14;;;;;;;7.80;5.43;;;20.20;99.90;;;20.81;62.68;95078.00;5014652;28;20531;-62
2023/06/19 05:41:45;;;;;;;6.40;5.17;;;20.40;99.90;;;20.95;62.37;95079.72;5014919;28;20467;-56
2023/06/19 05:44:15;;;;;;;5.23;4.60;;;20.50;99.90;;;21.11;61.97;95078.53;5011898;28;20576;-62
2023/06/19 05:46:42;;;;;;;6.77;4.30;;;20.60;99.90;;;21.27;61.33;95090.75;5017172;28;20497;-55
2023/06/19 05:49:10;;;;;;;8.70;4.67;;;20.80;99.90;;;21.43;61.62;95092.22;5014854;28;20556;-62
2023/06/19 05:51:37;;;;;;;7.20;4.60;;;21.00;99.90;;;21.60;61.42;95097.25;5015950;28;20500;-61
2023/06/19 05:54:04;;;;;;;5.13;4.50;;;21.10;99.90;;;21.74;61.18;95088.19;5013697;28;20477;-56
2023/06/19 05:56:32;;;;;;;8.03;4.50;;;21.30;99.90;;;21.89;60.54;95087.19;5015469;28;20756;-57
2023/06/19 05:59:02;;;;;;;5.13;4.37;;;21.40;99.90;;;22.01;60.34;95096.25;5012917;28;20482;-61
2023/06/19 06:01:29;;;;;;;13.93;4.43;;;21.50;99.90;;;22.14;59.73;95092.78;5016674;28;20457;-62
2023/06/19 06:03:56;;;;;;;7.60;4.00;;;21.60;99.90;;;22.29;59.71;95097.91;5011867;28;21263;-55
2023/06/19 06:06:25;;;;;;;4.70;4.27;;;21.80;99.90;;;22.43;59.35;95091.50;5015018;28;20449;-54
2023/06/19 06:08:52;;;;;;;10.80;5.07;;;21.90;99.90;;;22.58;58.38;95091.28;5012119;28;20456;-55
2023/06/19 06:11:20;;;;;;;6.30;4.37;;;22.00;99.90;;;22.71;58.31;95093.97;5010744;28;20456;-60
2023/06/19 06:13:47;;;;;;;8.00;4.60;;;22.20;99.90;;;22.85;58.38;95092.06;5009605;28;20457;-56
2023/06/19 06:16:15;;;;;;;5.03;4.13;;;22.30;99.90;;;22.99;57.04;95092.84;5015669;28;20496;-55
2023/06/19 06:18:43;;;;;;;5.37;4.00;;;22.40;99.50;;;23.11;56.67;95093.03;5011565;28;20461;-61
2023/06/19 06:21:12;;;;;;;4.10;3.80;;;22.60;99.30;;;23.24;56.66;95097.53;5017374;28;20510;-56
2023/06/19 06:23:41;;;;;;;4.57;4.00;;;22.70;99.30;;;23.32;56.55;95099.97;5010380;28;20958;-56
2023/06/19 06:26:08;;;;;;;3.83;3.43;;;22.80;99.20;;;23.41;56.70;95104.03;5016643;28;21016;-63
2023/06/19 06:28:35;;;;;;;5.73;4.30;;;22.90;99.00;;;23.53;55.62;95104.19;5010543;28;20489;-55
2023/06/19 06:31:03;;;;;;;5.83;4.50;;;23.00;98.60;;;23.67;55.85;95102.25;5016558;28;20934;-61
2023/06/19 06:33:31;;;;;;;4.23;3.93;;;23.10;98.60;;;23.79;55.16;95097.81;5008258;28;20544;-61
2023/06/19 06:35:59;;;;;;;4.23;3.83;;;23.20;98.00;;;23.93;53.92;95101.28;5015270;28;21007;-56
2023/06/19 06:38:26;;;;;;;5.97;3.50;;;23.40;97.30;;;24.05;54.89;95098.72;5012759;28;20453;-61
2023/06/19 06:40:54;;;;;;;7.33;4.50;;;23.50;97.60;;;24.20;54.15;95106.47;5013368;28;21024;-55
2023/06/19 06:43:21;;;;;;;5.73;3.90;;;23.70;97.10;;;24.32;53.35;95103.88;5013503;28;20451;-61
2023/06/19 06:45:49;;;;;;;8.20;5.03;;;23.80;96.80;;;24.44;53.75;95106.66;5014298;28;20472;-62
2023/06/19 06:48:17;;;;;;;6.40;4.83;;;23.90;96.80;;;24.54;53.47;95101.63;5013918;28;20501;-61
2023/06/19 06:50:45;;;;;;;7.93;3.90;;;24.00;96.50;;;24.68;53.74;95097.78;5013960;28;20963;-55
2023/06/19 06:53:13;;;;;;;4.40;3.77;;;24.10;96.40;;;24.82;53.48;95108.41;5011950;28;20461;-60
2023/06/19 06:55:40;;;;;;;4.50;4.10;;;24.30;96.50;;;24.95;53.09;95102.88;5013875;28;21185;-56
2023/06/19 06:58:07;;;;;;;9.27;3.83;;;24.40;96.00;;;25.10;52.24;95107.06;5013503;28;20456;-56
2023/06/19 07:00:34;;;;;;;5.03;4.27;;;24.50;95.20;;;25.23;52.75;95098.81;5011961;28;20986;-54
2023/06/19 07:03:02;;;;;;;6.67;3.80;;;24.70;95.50;;;25.36;52.56;95098.69;5014343;28;20460;-56
2023/06/19 07:05:29;;;;;;;4.87;4.27;;;24.80;95.70;;;25.44;52.25;95104.81;5012609;28;20515;-63
2023/06/19 07:07:58;;;;;;;3.87;3.53;;;24.90;95.40;;;25.56;51.85;95103.00;5013027;28;20495;-55
2023/06/19 07:10:25;;;;;;;3.77;3.47;;;25.00;94.90;;;25.68;50.59;95100.34;5011154;28;20503;-63
2023/06/19 07:12:53;;;;;;;4.50;3.80;;;25.10;93.80;;;25.80;51.25;95105.78;5012450;28;20453;-56
2023/06/19 07:15:20;;;;;;;4.43;4.03;;;25.20;94.30;;;25.91;51.07;95107.69;5012452;28;20468;-62
2023/06/19 07:17:48;;;;;;;9.50;5.53;;;25.30;94.00;;;25.93;49.86;95103.72;5013830;28;20452;-56
2023/06/19 07:20:15;;;;;;;3.77;3.47;;;25.40;93.50;;;25.94;50.48;95105.34;5010298;28;20485;-62
2023/06/19 07:22:42;;;;;;;6.33;3.90;;;25.40;93.10;;;26.03;50.13;95108.56;5015915;28;20456;-54
2023/06/19 07:25:12;;;;;;;5.77;3.90;;;25.40;93.00;;;26.15;50.24;95113.16;5012190;28;20906;-56
2023/06/19 07:27:39;;;;;;;7.00;3.70;;;25.60;93.00;;;26.24;50.03;95109.06;5014410;28;20504;-62
2023/06/19 07:30:08;;;;;;;4.40;4.00;;;25.60;92.90;;;26.33;50.04;95115.78;5009927;28;20531;-62
2023/06/19 07:32:35;;;;;;;7.93;4.60;;;25.70;93.00;;;26.41;50.38;95114.59;5013740;28;20457;-61
2023/06/19 07:35:02;;;;;;;5.80;4.53;;;25.80;92.80;;;26.48;49.75;95115.31;5011981;28;20579;-55
2023/06/19 07:37:30;;;;;;;4.57;4.17;;;25.80;92.50;;;26.55;49.61;95115.22;5012392;28;20456;-64
2023/06/19 07:39:57;;;;;;;5.50;3.57;;;25.90;92.30;;;26.65;48.58;95115.44;5010704;28;20942;-55
2023/06/19 07:42:26;;;;;;;6.17;4.20;;;26.00;91.00;;;26.73;48.28;95106.22;5013748;28;20464;-55
2023/06/19 07:44:54;;;;;;;11.67;5.53;;;26.10;90.90;;;26.81;48.30;95114.75;5012366;28;20531;-54
2023/06/19 07:47:21;;;;;;;5.17;4.60;;;26.20;91.00;;;26.88;48.48;95108.41;5016817;28;20514;-62
2023/06/19 07:49:48;;;;;;;4.40;4.00;;;26.30;90.80;;;26.98;46.92;95108.66;5011969;28;20468;-55
2023/06/19 07:52:16;;;;;;;3.60;3.30;;;26.30;89.10;;;27.09;46.85;95105.09;5010763;28;21032;-64
2023/06/19 07:54:53;;;;;;;3.80;3.50;;;26.50;88.20;;;27.20;46.79;95103.44;5012757;28;20485;-56
2023/06/19 07:57:20;;;;;;;5.17;4.07;;;26.60;88.80;;;27.31;46.60;95104.47;5013380;28;20457;-64
2023/06/19 07:59:50;;;;;;;6.07;3.70;;;26.70;87.90;;;27.45;46.40;95105.03;5012127;28;20480;-62
2023/06/19 08:02:18;;;;;;;7.10;3.93;;;26.80;86.70;;;27.57;46.71;95107.72;5010330;28;20457;-56
2023/06/19 08:04:46;;;;;;;4.40;3.90;;;26.90;87.40;;;27.70;46.96;95110.94;5014925;28;20560;-60
2023/06/19 08:07:13;;;;;;;5.23;3.83;;;27.00;87.60;;;27.81;46.92;95111.13;5010459;28;20464;-64
2023/06/19 08:09:40;;;;;;;10.50;4.47;;;27.10;86.80;;;27.91;46.57;95111.31;5012683;28;20235;-64
2023/06/19 08:12:08;;;;;;;5.33;3.67;;;27.20;86.50;;;28.00;45.94;95106.38;5009509;28;20508;-64
2023/06/19 08:14:38;;;;;;;4.57;3.60;;;27.30;85.80;;;28.08;45.42;95116.78;5012663;28;20229;-64
2023/06/19 08:17:07;;;;;;;4.27;3.97;;;27.40;84.90;;;28.17;45.28;95111.81;5007159;28;20491;-64
2023/06/19 08:19:34;;;;;;;5.73;3.40;;;27.50;83.80;;;28.22;45.79;95104.56;5013737;28;20576;-64
2023/06/19 08:22:02;;;;;;;4.27;3.40;;;27.60;83.60;;;28.28;45.25;95102.78;5010011;28;20296;-55
2023/06/19 08:24:29;;;;;;;3.27;3.07;;;27.60;82.70;;;28.38;45.43;95112.94;5009741;28;20217;-57
2023/06/19 08:26:57;;;;;;;8.10;4.03;;;27.70;82.70;;;28.52;45.20;95106.16;5012166;28;20294;-58
2023/06/19 08:29:24;;;;;;;4.27;3.87;;;27.80;82.10;;;28.62;44.18;95116.34;5014087;28;20268;-55
2023/06/19 08:31:51;;;;;;;5.50;3.20;;;28.00;81.00;;;28.71;44.46;95111.34;5008879;28;20706;-57
2023/06/19 08:34:20;;;;;;;4.80;3.70;;;28.00;80.00;;;28.80;43.33;95109.84;5011053;28;20221;-55
2023/06/19 08:36:47;;;;;;;3.70;3.50;;;28.10;79.20;;;28.91;44.10;95108.09;5010768;28;20206;-54
2023/06/19 08:39:15;;;;;;;7.10;3.07;;;28.20;78.90;;;29.03;42.98;95100.66;5012655;28;20229;-64
2023/06/19 08:41:43;;;;;;;3.90;3.60;;;28.40;78.60;;;29.17;42.85;95109.25;5009750;28;20294;-55
2023/06/19 08:44:10;;;;;;;8.00;4.33;;;28.50;77.60;;;29.28;43.31;95108.34;5011525;28;20503;-56
2023/06/19 08:46:38;;;;;;;3.87;3.57;;;28.60;77.00;;;29.38;41.84;95102.25;5007280;28;20253;-56
2023/06/19 08:49:06;;;;;;;6.93;4.00;;;28.70;75.90;;;29.50;41.83;95104.81;5008375;28;20248;-55
2023/06/19 08:51:34;;;;;;;5.50;3.40;;;28.80;75.00;;;29.60;41.96;95104.91;5014680;28;20592;-56
2023/06/19 08:54:04;;;;;;;2.90;2.70;;;28.90;73.20;;;29.71;40.75;95092.28;5015255;28;20323;-55
2023/06/19 08:56:33;;;;;;;3.90;3.70;;;29.10;72.00;;;29.83;41.44;95103.03;5016156;28;20312;-56
2023/06/19 08:59:10;;;;;;;3.50;3.30;;;29.20;71.80;;;29.95;40.69;95100.19;5015968;28;20591;-54
2023/06/19 09:01:37;;;;;;;6.07;3.90;;;29.30;70.50;;;30.04;40.14;95102.16;5011551;28;20667;-64
2023/06/19 09:04:12;;;;;;;3.50;3.30;;;29.40;70.10;;;30.16;38.48;95101.16;5010978;28;20226;-54
2023/06/19 09:06:49;;;;;;;3.70;3.20;;;29.50;67.10;;;30.25;38.69;95105.06;5018074;28;20212;-55
2023/06/19 09:09:16;;;;;;;4.70;4.30;;;29.60;67.00;;;30.27;40.25;95102.91;5011451;28;20280;-63
2023/06/19 09:11:47;;;;;;;3.20;3.00;;;29.70;68.20;;;30.31;39.65;95106.72;5012405;28;20197;-62
2023/06/19 09:14:14;;;;;;;6.05;3.42;;;29.70;67.50;;;30.37;38.85;95097.56;5012104;28;20240;-63
2023/06/19 09:16:42;;;;;;;7.70;3.13;;;29.70;65.90;;;30.42;39.04;95101.44;5012361;28;20229;-65
2023/06/19 09:19:09;;;;;;;5.87;3.63;;;29.80;65.70;;;30.45;39.01;95100.91;5012303;28;20938;-55
2023/06/19 09:21:38;;;;;;;6.25;3.20;;;29.80;65.50;;;30.50;39.32;95106.38;5012946;28;20324;-55
2023/06/19 09:24:07;;;;;;;3.33;3.13;;;29.90;65.00;;;30.56;39.49;95102.63;5012784;28;20348;-55
2023/06/19 09:26:35;;;;;;;4.00;3.70;;;30.00;65.70;;;30.62;38.90;95109.72;5010449;28;20935;-58
2023/06/19 09:29:13;;;;;;;3.53;3.28;;;30.00;65.30;;;30.67;38.74;95100.78;5013330;28;20245;-55
2023/06/19 09:31:41;;;;;;;3.03;2.78;;;30.10;64.70;;;30.72;38.55;95098.94;5015469;28;20696;-63
2023/06/19 09:34:09;;;;;;;3.65;3.35;;;30.10;64.20;;;30.75;38.54;95098.41;5013490;28;20252;-64
2023/06/19 09:36:36;;;;;;;3.75;3.55;;;30.10;64.20;;;30.80;39.06;95094.09;5011036;28;20225;-55
2023/06/19 09:39:04;;;;;;;3.60;3.40;;;30.20;64.60;;;30.82;38.37;95097.38;5015232;28;20217;-53
2023/06/19 09:41:32;;;;;;;4.25;3.28;;;30.20;62.50;;;30.79;38.06;95111.47;5011608;28;20198;-56
2023/06/19 09:44:00;;;;;;;4.03;3.72;;;30.20;62.50;;;30.77;37.98;95100.03;5013773;28;20233;-56
2023/06/19 09:46:31;;;;;;;6.35;4.05;;;30.20;62.60;;;30.73;37.59;95088.88;5010110;28;20257;-66
2023/06/19 09:49:01;;;;;;;10.30;5.03;;;30.20;61.80;;;30.74;37.64;95102.19;5013075;28;20240;-56
2023/06/19 09:51:31;;;;;;;4.07;3.78;;;30.20;62.50;;;30.73;38.13;95097.03;5017064;28;20675;-54
2023/06/19 09:54:00;;;;;;;4.40;4.10;;;30.20;62.00;;;30.75;37.92;95087.56;5010930;28;20280;-55
2023/06/19 09:56:28;;;;;;;5.32;3.88;;;30.10;61.50;;;30.76;37.61;95093.78;5015868;28;20206;-55
2023/06/19 09:58:59;;;;;;;3.92;3.63;;;30.20;61.50;;;30.75;37.20;95084.84;5015021;28;20218;-56
2023/06/19 10:01:27;;;;;;;5.28;3.47;;;30.20;60.00;;;30.74;36.90;95082.38;5011750;28;20225;-63
2023/06/19 10:04:04;;;;;;;3.20;2.83;;;30.10;59.40;;;30.75;36.67;95087.56;5013158;28;20202;-55
2023/06/19 10:06:31;;;;;;;3.65;3.30;;;30.20;59.60;;;30.72;37.38;95082.66;5017766;28;20208;-54
2023/06/19 10:09:07;;;;;;;4.53;4.13;;;30.10;60.90;;;30.72;36.23;95077.22;5014240;28;20233;-63
2023/06/19 10:11:47;;;;;;;5.43;3.28;;;30.10;59.10;;;30.69;36.46;95077.75;5013766;28;20190;-56
2023/06/19 10:14:18;;;;;;;3.75;3.45;;;30.10;58.30;;;30.61;36.98;95080.94;5012837;28;20233;-58
2023/06/19 10:16:45;;;;;;;3.40;3.10;;;30.10;58.60;;;30.53;36.31;95073.28;5015008;28;20809;-55
2023/06/19 10:19:15;;;;;;;4.93;3.45;;;30.00;57.90;;;30.43;37.28;95078.63;5016156;28;20226;-54
2023/06/19 10:21:46;;;;;;;3.85;3.17;;;29.90;59.00;;;30.34;36.34;95065.50;5014965;28;20276;-63